VTD754 UWKD-UWLL
Flight info
| Callsign | VTD754 |
|---|---|
| Flight time | 0h 48m |
| Altitude | 14000 |
| Route | SONUM T789 AGUTO |
| Aircraft | DA42/L-L/C |
Departure
| Time | 2026-04-28 16:24 |
|---|---|
| Airport | Kazan International Airport (UWKD) |
Arrival
| Time | 2026-04-28 17:12 |
|---|---|
| Airport | Ulyanovsk Baratayevka Airport (UWLL) |
| Time | Latitude | Longitude | Altitude | Speed | Heading |
|---|---|---|---|---|---|
| 2026-04-28 15:58 | 55.60662 | 49.29483 | 401 ft | 0 kts | 34° |
| 2026-04-28 16:18 | 55.60687 | 49.29493 | 401 ft | 6 kts | 333° |
| 2026-04-28 16:18 | 55.60719 | 49.29418 | 401 ft | 9 kts | 305° |
| 2026-04-28 16:18 | 55.60729 | 49.29324 | 401 ft | 9 kts | 211° |
| 2026-04-28 16:19 | 55.60638 | 49.29215 | 401 ft | 17 kts | 216° |
| 2026-04-28 16:19 | 55.60580 | 49.29091 | 401 ft | 12 kts | 253° |
| 2026-04-28 16:19 | 55.60582 | 49.28948 | 401 ft | 12 kts | 281° |
| 2026-04-28 16:19 | 55.60585 | 49.28802 | 401 ft | 13 kts | 272° |
| 2026-04-28 16:20 | 55.60605 | 49.28582 | 401 ft | 20 kts | 301° |
| 2026-04-28 16:20 | 55.60676 | 49.28397 | 401 ft | 17 kts | 304° |
| 2026-04-28 16:20 | 55.60756 | 49.28193 | 401 ft | 27 kts | 306° |
| 2026-04-28 16:20 | 55.60884 | 49.27864 | 401 ft | 35 kts | 304° |
| 2026-04-28 16:21 | 55.61019 | 49.27516 | 401 ft | 31 kts | 305° |
| 2026-04-28 16:21 | 55.61127 | 49.27238 | 401 ft | 24 kts | 303° |
| 2026-04-28 16:21 | 55.61202 | 49.27043 | 401 ft | 18 kts | 305° |
| 2026-04-28 16:21 | 55.61199 | 49.26901 | 402 ft | 12 kts | 210° |
| 2026-04-28 16:22 | 55.61161 | 49.26857 | 402 ft | 0 kts | 213° |
| 2026-04-28 16:22 | 55.61159 | 49.26853 | 402 ft | 6 kts | 215° |
| 2026-04-28 16:22 | 55.61088 | 49.26773 | 402 ft | 13 kts | 202° |
| 2026-04-28 16:23 | 55.61031 | 49.26831 | 401 ft | 0 kts | 126° |
| 2026-04-28 16:23 | 55.60937 | 49.27067 | 400 ft | 57 kts | 125° |
| 2026-04-28 16:23 | 55.60625 | 49.27877 | 459 ft | 95 kts | 127° |
| 2026-04-28 16:23 | 55.60220 | 49.28941 | 687 ft | 109 kts | 127° |
| 2026-04-28 16:24 | 55.59893 | 49.30105 | 1151 ft | 101 kts | 116° |
| 2026-04-28 16:24 | 55.59595 | 49.31313 | 1406 ft | 114 kts | 125° |
| 2026-04-28 16:24 | 55.59269 | 49.32607 | 1779 ft | 116 kts | 123° |
| 2026-04-28 16:24 | 55.58977 | 49.33935 | 2141 ft | 117 kts | 122° |
| 2026-04-28 16:25 | 55.58709 | 49.35287 | 2492 ft | 117 kts | 121° |
| 2026-04-28 16:25 | 55.58450 | 49.36666 | 2829 ft | 119 kts | 121° |
| 2026-04-28 16:25 | 55.58128 | 49.37953 | 3144 ft | 109 kts | 146° |
| 2026-04-28 16:25 | 55.57538 | 49.38598 | 3501 ft | 95 kts | 172° |
| 2026-04-28 16:26 | 55.56926 | 49.38842 | 3839 ft | 88 kts | 191° |
| 2026-04-28 16:26 | 55.56291 | 49.38787 | 4043 ft | 102 kts | 196° |
| 2026-04-28 16:26 | 55.55526 | 49.38602 | 4161 ft | 112 kts | 199° |
| 2026-04-28 16:26 | 55.54721 | 49.38361 | 4240 ft | 123 kts | 196° |
| 2026-04-28 16:27 | 55.53947 | 49.38220 | 4755 ft | 101 kts | 196° |
| 2026-04-28 16:27 | 55.53277 | 49.38163 | 5141 ft | 96 kts | 196° |
| 2026-04-28 16:27 | 55.52053 | 49.37612 | 5784 ft | 88 kts | 213° |
| 2026-04-28 16:28 | 55.51548 | 49.37076 | 6122 ft | 83 kts | 225° |
| 2026-04-28 16:28 | 55.51072 | 49.36493 | 6432 ft | 83 kts | 221° |
| 2026-04-28 16:28 | 55.50577 | 49.35950 | 6746 ft | 84 kts | 221° |
| 2026-04-28 16:28 | 55.50117 | 49.35463 | 7222 ft | 71 kts | 221° |
| 2026-04-28 16:29 | 55.49247 | 49.34580 | 7921 ft | 72 kts | 221° |
| 2026-04-28 16:29 | 55.48374 | 49.33704 | 8656 ft | 72 kts | 221° |
| 2026-04-28 16:30 | 55.47939 | 49.33275 | 9009 ft | 73 kts | 221° |
| 2026-04-28 16:30 | 55.47497 | 49.32841 | 9370 ft | 73 kts | 221° |
| 2026-04-28 16:30 | 55.47052 | 49.32408 | 9719 ft | 73 kts | 221° |
| 2026-04-28 16:30 | 55.46606 | 49.31974 | 10046 ft | 74 kts | 221° |
| 2026-04-28 16:31 | 55.46154 | 49.31529 | 10387 ft | 75 kts | 221° |
| 2026-04-28 16:31 | 55.45696 | 49.31071 | 10728 ft | 76 kts | 221° |
| 2026-04-28 16:31 | 55.45234 | 49.30605 | 11066 ft | 77 kts | 221° |
| 2026-04-28 16:31 | 55.44765 | 49.30127 | 11400 ft | 78 kts | 221° |
| 2026-04-28 16:32 | 55.44291 | 49.29640 | 11737 ft | 80 kts | 221° |
| 2026-04-28 16:32 | 55.43324 | 49.28630 | 12412 ft | 82 kts | 221° |
| 2026-04-28 16:32 | 55.42829 | 49.28106 | 12755 ft | 83 kts | 221° |
| 2026-04-28 16:33 | 55.42330 | 49.27576 | 13095 ft | 84 kts | 221° |
| 2026-04-28 16:33 | 55.41997 | 49.27221 | 13263 ft | 85 kts | 221° |
| 2026-04-28 16:33 | 55.41313 | 49.26481 | 13612 ft | 87 kts | 220° |
| 2026-04-28 16:33 | 55.40795 | 49.25916 | 13827 ft | 90 kts | 221° |
| 2026-04-28 16:34 | 55.40218 | 49.25254 | 13834 ft | 105 kts | 221° |
| 2026-04-28 16:34 | 55.39586 | 49.24502 | 13835 ft | 114 kts | 220° |
| 2026-04-28 16:34 | 55.38807 | 49.23983 | 13839 ft | 126 kts | 202° |
| 2026-04-28 16:34 | 55.37923 | 49.23717 | 13840 ft | 131 kts | 200° |
| 2026-04-28 16:35 | 55.37014 | 49.23463 | 13841 ft | 133 kts | 200° |
| 2026-04-28 16:35 | 55.36092 | 49.23203 | 13839 ft | 135 kts | 200° |
| 2026-04-28 16:35 | 55.35156 | 49.22935 | 13839 ft | 138 kts | 200° |
| 2026-04-28 16:35 | 55.34197 | 49.22656 | 13839 ft | 141 kts | 200° |
| 2026-04-28 16:36 | 55.33226 | 49.22370 | 13840 ft | 143 kts | 200° |
| 2026-04-28 16:36 | 55.32252 | 49.22079 | 13835 ft | 145 kts | 200° |
| 2026-04-28 16:36 | 55.31247 | 49.21775 | 13835 ft | 145 kts | 200° |
| 2026-04-28 16:36 | 55.30253 | 49.21475 | 13835 ft | 145 kts | 200° |
| 2026-04-28 16:37 | 55.29258 | 49.21173 | 13835 ft | 145 kts | 200° |
| 2026-04-28 16:37 | 55.28262 | 49.20873 | 13835 ft | 145 kts | 200° |
| 2026-04-28 16:37 | 55.27265 | 49.20572 | 13835 ft | 146 kts | 199° |
| 2026-04-28 16:38 | 55.25273 | 49.19972 | 13835 ft | 145 kts | 200° |
| 2026-04-28 16:38 | 55.24272 | 49.19677 | 13837 ft | 146 kts | 200° |
| 2026-04-28 16:38 | 55.23268 | 49.19375 | 13842 ft | 145 kts | 204° |
| 2026-04-28 16:38 | 55.22346 | 49.18790 | 13846 ft | 142 kts | 211° |
| 2026-04-28 16:39 | 55.21438 | 49.18114 | 13844 ft | 142 kts | 211° |
| 2026-04-28 16:39 | 55.20533 | 49.17434 | 13844 ft | 141 kts | 212° |
| 2026-04-28 16:39 | 55.19706 | 49.16568 | 13846 ft | 137 kts | 224° |
| 2026-04-28 16:39 | 55.18984 | 49.15480 | 13846 ft | 137 kts | 226° |
| 2026-04-28 16:40 | 55.18272 | 49.14362 | 13845 ft | 137 kts | 226° |
| 2026-04-28 16:40 | 55.17582 | 49.13255 | 13830 ft | 128 kts | 228° |
| 2026-04-28 16:40 | 55.16918 | 49.12212 | 13841 ft | 130 kts | 226° |
| 2026-04-28 16:40 | 55.16226 | 49.11172 | 13842 ft | 134 kts | 222° |
| 2026-04-28 16:41 | 55.15476 | 49.10201 | 13842 ft | 135 kts | 221° |
| 2026-04-28 16:41 | 55.14697 | 49.09262 | 13842 ft | 137 kts | 220° |
| 2026-04-28 16:41 | 55.13886 | 49.08371 | 13841 ft | 138 kts | 218° |
| 2026-04-28 16:41 | 55.13058 | 49.07515 | 13843 ft | 138 kts | 217° |
| 2026-04-28 16:42 | 55.12224 | 49.06671 | 13841 ft | 139 kts | 217° |
| 2026-04-28 16:42 | 55.11388 | 49.05831 | 13842 ft | 138 kts | 217° |
| 2026-04-28 16:42 | 55.10553 | 49.04993 | 13841 ft | 138 kts | 217° |
| 2026-04-28 16:42 | 55.09716 | 49.04153 | 13842 ft | 139 kts | 217° |
| 2026-04-28 16:43 | 55.08879 | 49.03313 | 13841 ft | 139 kts | 217° |
| 2026-04-28 16:43 | 55.08039 | 49.02471 | 13842 ft | 139 kts | 217° |
| 2026-04-28 16:43 | 55.07198 | 49.01628 | 13841 ft | 140 kts | 217° |
| 2026-04-28 16:43 | 55.06357 | 49.00781 | 13840 ft | 140 kts | 217° |
| 2026-04-28 16:44 | 55.05512 | 48.99935 | 13841 ft | 140 kts | 217° |
| 2026-04-28 16:44 | 55.04688 | 48.99119 | 13764 ft | 135 kts | 217° |
| 2026-04-28 16:44 | 55.03878 | 48.98309 | 13611 ft | 133 kts | 217° |
| 2026-04-28 16:44 | 55.03076 | 48.97506 | 13442 ft | 132 kts | 217° |
| 2026-04-28 16:45 | 55.02281 | 48.96710 | 13274 ft | 131 kts | 217° |
| 2026-04-28 16:45 | 55.01490 | 48.95919 | 13066 ft | 132 kts | 217° |
| 2026-04-28 16:45 | 55.00684 | 48.95113 | 12823 ft | 135 kts | 217° |
| 2026-04-28 16:45 | 54.99866 | 48.94298 | 12585 ft | 136 kts | 217° |
| 2026-04-28 16:46 | 54.99056 | 48.93489 | 12332 ft | 136 kts | 217° |
| 2026-04-28 16:46 | 54.98230 | 48.92666 | 12087 ft | 137 kts | 217° |
| 2026-04-28 16:46 | 54.97406 | 48.91846 | 11845 ft | 136 kts | 217° |
| 2026-04-28 16:46 | 54.96585 | 48.91029 | 11639 ft | 134 kts | 217° |
| 2026-04-28 16:47 | 54.95783 | 48.90231 | 11453 ft | 132 kts | 217° |
| 2026-04-28 16:47 | 54.94994 | 48.89445 | 11268 ft | 130 kts | 217° |
| 2026-04-28 16:47 | 54.94214 | 48.88670 | 11081 ft | 128 kts | 217° |
| 2026-04-28 16:47 | 54.93441 | 48.87901 | 10898 ft | 127 kts | 217° |
| 2026-04-28 16:48 | 54.92675 | 48.87140 | 10716 ft | 126 kts | 217° |
| 2026-04-28 16:48 | 54.91916 | 48.86386 | 10536 ft | 125 kts | 217° |
| 2026-04-28 16:48 | 54.91161 | 48.85637 | 10356 ft | 124 kts | 217° |
| 2026-04-28 16:48 | 54.90413 | 48.84895 | 10176 ft | 123 kts | 217° |
| 2026-04-28 16:49 | 54.89670 | 48.84158 | 9997 ft | 123 kts | 217° |
| 2026-04-28 16:49 | 54.88930 | 48.83424 | 9821 ft | 122 kts | 217° |
| 2026-04-28 16:49 | 54.88192 | 48.82692 | 9637 ft | 122 kts | 216° |
| 2026-04-28 16:49 | 54.87456 | 48.81964 | 9422 ft | 123 kts | 216° |
| 2026-04-28 16:50 | 54.86689 | 48.81201 | 8998 ft | 131 kts | 216° |
| 2026-04-28 16:50 | 54.85885 | 48.80403 | 8589 ft | 135 kts | 216° |
| 2026-04-28 16:50 | 54.85064 | 48.79593 | 8184 ft | 136 kts | 216° |
| 2026-04-28 16:50 | 54.84247 | 48.78787 | 7785 ft | 137 kts | 216° |
| 2026-04-28 16:51 | 54.83422 | 48.77972 | 7395 ft | 136 kts | 216° |
| 2026-04-28 16:51 | 54.82652 | 48.77056 | 7000 ft | 133 kts | 224° |
| 2026-04-28 16:51 | 54.81965 | 48.76005 | 6625 ft | 131 kts | 225° |
| 2026-04-28 16:51 | 54.81290 | 48.74977 | 6352 ft | 125 kts | 225° |
| 2026-04-28 16:52 | 54.80647 | 48.73996 | 6119 ft | 121 kts | 225° |
| 2026-04-28 16:52 | 54.80021 | 48.73039 | 5877 ft | 119 kts | 225° |
| 2026-04-28 16:52 | 54.79404 | 48.72099 | 5635 ft | 117 kts | 225° |
| 2026-04-28 16:52 | 54.78793 | 48.71166 | 5397 ft | 117 kts | 225° |
| 2026-04-28 16:53 | 54.78187 | 48.70243 | 5231 ft | 115 kts | 226° |
| 2026-04-28 16:53 | 54.77592 | 48.69337 | 5100 ft | 113 kts | 226° |
| 2026-04-28 16:53 | 54.77000 | 48.68435 | 4970 ft | 113 kts | 226° |
| 2026-04-28 16:53 | 54.76407 | 48.67534 | 4857 ft | 111 kts | 226° |
| 2026-04-28 16:54 | 54.75845 | 48.66680 | 4862 ft | 107 kts | 226° |
| 2026-04-28 16:54 | 54.75269 | 48.65804 | 4868 ft | 114 kts | 226° |
| 2026-04-28 16:54 | 54.74661 | 48.64879 | 4862 ft | 118 kts | 226° |
| 2026-04-28 16:54 | 54.74253 | 48.64258 | 4864 ft | 119 kts | 226° |
| 2026-04-28 16:55 | 54.73410 | 48.62977 | 4864 ft | 122 kts | 226° |
| 2026-04-28 16:55 | 54.72771 | 48.62008 | 4864 ft | 122 kts | 226° |
| 2026-04-28 16:55 | 54.72129 | 48.61034 | 4864 ft | 123 kts | 226° |
| 2026-04-28 16:55 | 54.71486 | 48.60059 | 4862 ft | 123 kts | 226° |
| 2026-04-28 16:56 | 54.70840 | 48.59078 | 4865 ft | 124 kts | 226° |
| 2026-04-28 16:56 | 54.70186 | 48.58087 | 4868 ft | 128 kts | 226° |
| 2026-04-28 16:56 | 54.69494 | 48.57039 | 4867 ft | 135 kts | 226° |
| 2026-04-28 16:56 | 54.69020 | 48.56320 | 4867 ft | 138 kts | 226° |
| 2026-04-28 16:57 | 54.68287 | 48.55210 | 4864 ft | 141 kts | 226° |
| 2026-04-28 16:57 | 54.67546 | 48.54088 | 4863 ft | 142 kts | 226° |
| 2026-04-28 16:57 | 54.66802 | 48.52964 | 4863 ft | 143 kts | 226° |
| 2026-04-28 16:57 | 54.66056 | 48.51836 | 4865 ft | 143 kts | 225° |
| 2026-04-28 16:58 | 54.65308 | 48.50708 | 4861 ft | 142 kts | 226° |
| 2026-04-28 16:58 | 54.64565 | 48.49587 | 4862 ft | 141 kts | 226° |
| 2026-04-28 16:58 | 54.63825 | 48.48470 | 4863 ft | 141 kts | 226° |
| 2026-04-28 16:58 | 54.63119 | 48.47313 | 4856 ft | 138 kts | 233° |
| 2026-04-28 16:59 | 54.62394 | 48.46195 | 4858 ft | 141 kts | 223° |
| 2026-04-28 16:59 | 54.61630 | 48.45131 | 4857 ft | 141 kts | 224° |
| 2026-04-28 16:59 | 54.60886 | 48.44042 | 4839 ft | 139 kts | 225° |
| 2026-04-28 16:59 | 54.60176 | 48.42960 | 4697 ft | 134 kts | 226° |
| 2026-04-28 17:00 | 54.59477 | 48.41908 | 4570 ft | 133 kts | 224° |
| 2026-04-28 17:00 | 54.58780 | 48.40884 | 4444 ft | 132 kts | 225° |
| 2026-04-28 17:00 | 54.58090 | 48.39848 | 4312 ft | 132 kts | 225° |
| 2026-04-28 17:00 | 54.57391 | 48.38792 | 4139 ft | 136 kts | 226° |
| 2026-04-28 17:01 | 54.56670 | 48.37707 | 3961 ft | 140 kts | 225° |
| 2026-04-28 17:01 | 54.55933 | 48.36599 | 3768 ft | 141 kts | 225° |
| 2026-04-28 17:01 | 54.55199 | 48.35496 | 3594 ft | 142 kts | 225° |
| 2026-04-28 17:01 | 54.54450 | 48.34372 | 3416 ft | 143 kts | 225° |
| 2026-04-28 17:02 | 54.53696 | 48.33241 | 3234 ft | 144 kts | 225° |
| 2026-04-28 17:02 | 54.52943 | 48.32113 | 3049 ft | 142 kts | 225° |
| 2026-04-28 17:02 | 54.52214 | 48.31023 | 2871 ft | 136 kts | 225° |
| 2026-04-28 17:02 | 54.51514 | 48.29974 | 2687 ft | 132 kts | 225° |
| 2026-04-28 17:03 | 54.50037 | 48.28151 | 2330 ft | 134 kts | 208° |
| 2026-04-28 17:03 | 54.49129 | 48.27785 | 2276 ft | 133 kts | 193° |
| 2026-04-28 17:03 | 54.48220 | 48.27888 | 2277 ft | 131 kts | 178° |
| 2026-04-28 17:04 | 54.46600 | 48.29479 | 2151 ft | 146 kts | 143° |
| 2026-04-28 17:04 | 54.46004 | 48.30938 | 2032 ft | 150 kts | 131° |
| 2026-04-28 17:05 | 54.44930 | 48.33873 | 1979 ft | 139 kts | 131° |
| 2026-04-28 17:05 | 54.44424 | 48.35259 | 1976 ft | 135 kts | 131° |
| 2026-04-28 17:05 | 54.43940 | 48.36608 | 1985 ft | 130 kts | 132° |
| 2026-04-28 17:06 | 54.42636 | 48.38259 | 1989 ft | 112 kts | 177° |
| 2026-04-28 17:06 | 54.41875 | 48.38282 | 1988 ft | 108 kts | 196° |
| 2026-04-28 17:06 | 54.40598 | 48.37032 | 1983 ft | 113 kts | 211° |
| 2026-04-28 17:07 | 54.39912 | 48.36386 | 1984 ft | 113 kts | 213° |
| 2026-04-28 17:07 | 54.39238 | 48.35710 | 2013 ft | 108 kts | 214° |
| 2026-04-28 17:07 | 54.38612 | 48.35065 | 1987 ft | 101 kts | 214° |
| 2026-04-28 17:07 | 54.38026 | 48.34446 | 1987 ft | 97 kts | 216° |
| 2026-04-28 17:08 | 54.37457 | 48.33824 | 2005 ft | 96 kts | 216° |
| 2026-04-28 17:08 | 54.36880 | 48.33208 | 1993 ft | 98 kts | 216° |
| 2026-04-28 17:08 | 54.36300 | 48.32579 | 1997 ft | 99 kts | 216° |
| 2026-04-28 17:08 | 54.35715 | 48.31944 | 1997 ft | 100 kts | 216° |
| 2026-04-28 17:09 | 54.35124 | 48.31303 | 2000 ft | 101 kts | 216° |
| 2026-04-28 17:09 | 54.34517 | 48.30649 | 1915 ft | 104 kts | 216° |
| 2026-04-28 17:09 | 54.33912 | 48.30002 | 1785 ft | 101 kts | 215° |
| 2026-04-28 17:09 | 54.33322 | 48.29358 | 1635 ft | 100 kts | 215° |
| 2026-04-28 17:10 | 54.32752 | 48.28741 | 1489 ft | 93 kts | 215° |
| 2026-04-28 17:10 | 54.32222 | 48.28161 | 1365 ft | 90 kts | 216° |
| 2026-04-28 17:10 | 54.31687 | 48.27578 | 1227 ft | 93 kts | 216° |
| 2026-04-28 17:10 | 54.31129 | 48.26987 | 1101 ft | 96 kts | 213° |
| 2026-04-28 17:11 | 54.30562 | 48.26386 | 980 ft | 97 kts | 212° |
| 2026-04-28 17:11 | 54.29989 | 48.25742 | 826 ft | 99 kts | 211° |
| 2026-04-28 17:11 | 54.29417 | 48.25169 | 701 ft | 90 kts | 209° |
| 2026-04-28 17:11 | 54.28893 | 48.24586 | 603 ft | 88 kts | 213° |
| 2026-04-28 17:12 | 54.28370 | 48.24016 | 458 ft | 89 kts | 212° |
| 2026-04-28 17:12 | 54.27931 | 48.23538 | 400 ft | 57 kts | 212° |
| 2026-04-28 17:12 | 54.27669 | 48.23256 | 402 ft | 34 kts | 212° |
| 2026-04-28 17:12 | 54.27508 | 48.23087 | 402 ft | 22 kts | 211° |
| 2026-04-28 17:13 | 54.27349 | 48.22915 | 400 ft | 32 kts | 212° |
| 2026-04-28 17:13 | 54.27193 | 48.22746 | 399 ft | 15 kts | 209° |
| 2026-04-28 17:13 | 54.27123 | 48.22733 | 400 ft | 9 kts | 150° |
| 2026-04-28 17:13 | 54.27044 | 48.22770 | 400 ft | 14 kts | 169° |
| 2026-04-28 17:14 | 54.27000 | 48.22786 | 400 ft | 4 kts | 169° |
| 2026-04-28 17:14 | 54.26916 | 48.22855 | 400 ft | 15 kts | 91° |
| 2026-04-28 17:14 | 54.27004 | 48.22976 | 399 ft | 14 kts | 33° |
| 2026-04-28 17:14 | 54.26998 | 48.23113 | 399 ft | 16 kts | 121° |
| 2026-04-28 17:15 | 54.26941 | 48.23267 | 399 ft | 14 kts | 124° |
| 2026-04-28 17:15 | 54.27009 | 48.23393 | 399 ft | 21 kts | 32° |
| 2026-04-28 17:15 | 54.27130 | 48.23527 | 399 ft | 10 kts | 51° |
| 2026-04-28 17:15 | 54.27104 | 48.23627 | 399 ft | 6 kts | 23° |
| 2026-04-28 17:16 | 54.27117 | 48.23642 | 399 ft | 0 kts | 29° |